createdAt,value
2022-10-11T00:02:10.135Z,14.00
2022-10-11T00:04:37.497Z,8.30
2022-10-11T00:07:04.825Z,7.72
2022-10-11T00:09:32.629Z,12.57
2022-10-11T00:11:59.795Z,14.83
2022-10-11T00:14:27.450Z,11.77
2022-10-11T00:16:55.060Z,10.10
2022-10-11T00:19:22.369Z,12.00
2022-10-11T00:21:49.766Z,11.30
2022-10-11T00:24:17.184Z,11.60
2022-10-11T00:26:46.932Z,10.80
2022-10-11T00:29:14.281Z,10.13
2022-10-11T00:31:41.501Z,10.10
2022-10-11T00:34:08.841Z,10.32
2022-10-11T00:36:35.911Z,12.23
2022-10-11T00:39:03.881Z,10.25
2022-10-11T00:41:30.988Z,10.80
2022-10-11T00:44:19.680Z,12.20
2022-10-11T00:46:55.036Z,10.23
2022-10-11T00:49:31.753Z,11.00
2022-10-11T00:52:01.964Z,8.63
2022-10-11T00:54:31.849Z,12.82
2022-10-11T00:57:03.943Z,9.88
2022-10-11T00:59:35.409Z,10.48
2022-10-11T01:02:03.174Z,11.67
2022-10-11T01:04:30.238Z,9.27
2022-10-11T01:06:58.088Z,9.55
2022-10-11T01:09:26.303Z,8.57
2022-10-11T01:11:55.523Z,10.02
2022-10-11T01:14:50.360Z,8.40
2022-10-11T01:17:20.223Z,12.95
2022-10-11T01:20:01.825Z,12.38
2022-10-11T01:22:39.750Z,8.07
2022-10-11T01:25:25.281Z,8.07
2022-10-11T01:28:04.840Z,11.17
2022-10-11T01:30:33.496Z,8.93
2022-10-11T01:33:15.310Z,10.43
2022-10-11T01:36:28.611Z,8.88
2022-10-11T01:39:04.399Z,13.30
2022-10-11T01:41:37.218Z,7.43
2022-10-11T01:44:05.027Z,7.68
2022-10-11T01:46:33.182Z,7.65
2022-10-11T01:49:01.658Z,11.57
2022-10-11T01:51:47.136Z,10.27
2022-10-11T01:54:49.905Z,9.70
2022-10-11T01:57:36.576Z,12.45
2022-10-11T02:00:25.047Z,9.05
2022-10-11T02:03:13.523Z,12.65
2022-10-11T02:06:01.527Z,9.55
2022-10-11T02:08:53.005Z,13.17
2022-10-11T02:11:26.797Z,13.82
2022-10-11T02:14:05.028Z,12.88
2022-10-11T02:16:37.711Z,14.52
2022-10-11T02:19:06.626Z,10.80
2022-10-11T02:21:34.781Z,8.50
2022-10-11T02:24:09.710Z,16.17
2022-10-11T02:26:39.161Z,11.07
2022-10-11T02:29:08.083Z,10.93
2022-10-11T02:31:35.856Z,12.50
2022-10-11T02:34:13.185Z,11.50
2022-10-11T02:37:06.412Z,13.02
2022-10-11T02:39:45.257Z,10.93
2022-10-11T02:42:18.772Z,13.32
2022-10-11T02:45:00.946Z,13.63
2022-10-11T02:47:31.708Z,11.57
2022-10-11T02:50:02.136Z,12.02
2022-10-11T02:52:29.449Z,11.38
2022-10-11T02:54:56.488Z,12.32
2022-10-11T02:57:23.605Z,14.60
2022-10-11T02:59:50.675Z,12.80
2022-10-11T03:02:17.783Z,11.20
2022-10-11T03:04:44.955Z,12.10
2022-10-11T03:07:12.024Z,13.38
2022-10-11T03:09:39.071Z,10.98
2022-10-11T03:12:06.522Z,11.10
2022-10-11T03:14:33.593Z,13.43
2022-10-11T03:17:17.340Z,16.75
2022-10-11T03:19:47.834Z,12.18
2022-10-11T03:22:14.972Z,12.45
2022-10-11T03:24:42.031Z,11.57
2022-10-11T03:27:09.095Z,12.15
2022-10-11T03:29:36.172Z,12.40
2022-10-11T03:32:03.485Z,15.30
2022-10-11T03:34:30.671Z,10.10
2022-10-11T03:36:57.804Z,13.43
2022-10-11T03:39:24.851Z,10.45
2022-10-11T03:41:51.970Z,11.77
2022-10-11T03:44:19.333Z,12.73
2022-10-11T03:46:46.395Z,11.30
2022-10-11T03:49:13.584Z,9.47
2022-10-11T03:51:40.673Z,9.98
2022-10-11T03:54:08.019Z,11.10
2022-10-11T03:56:35.117Z,10.27
2022-10-11T03:59:02.246Z,10.15
2022-10-11T04:01:29.410Z,8.27
2022-10-11T04:03:57.326Z,9.32
2022-10-11T04:06:24.423Z,10.95
2022-10-11T04:08:51.558Z,12.68
2022-10-11T04:11:18.656Z,8.85
2022-10-11T04:13:45.781Z,7.13
2022-10-11T04:16:13.144Z,6.78
2022-10-11T04:18:40.312Z,9.82
2022-10-11T04:21:07.541Z,9.73
2022-10-11T04:23:35.025Z,12.57
2022-10-11T04:26:07.436Z,6.20
2022-10-11T04:28:35.538Z,7.97
2022-10-11T04:31:05.029Z,5.90
2022-10-11T04:33:32.173Z,5.97
2022-10-11T04:35:59.235Z,11.98
2022-10-11T04:38:27.040Z,9.20
2022-10-11T04:40:54.094Z,8.02
2022-10-11T04:43:21.196Z,3.33
2022-10-11T04:45:51.203Z,6.15
2022-10-11T04:48:20.482Z,8.98
2022-10-11T04:50:47.563Z,6.33
2022-10-11T04:53:14.908Z,5.75
2022-10-11T04:55:42.099Z,7.43
2022-10-11T04:58:09.225Z,10.23
2022-10-11T05:00:36.298Z,7.22
2022-10-11T05:03:03.489Z,9.57
2022-10-11T05:05:30.510Z,12.57
2022-10-11T05:07:57.602Z,5.03
2022-10-11T05:10:24.725Z,8.10
2022-10-11T05:12:51.854Z,8.27
2022-10-11T05:15:18.952Z,5.13
2022-10-11T05:17:46.295Z,7.95
2022-10-11T05:20:13.448Z,7.85
2022-10-11T05:22:40.520Z,8.30
2022-10-11T05:25:07.792Z,8.60
2022-10-11T05:27:34.975Z,8.50
2022-10-11T05:30:02.018Z,7.63
2022-10-11T05:32:29.053Z,8.13
2022-10-11T05:34:56.231Z,8.45
2022-10-11T05:37:23.342Z,8.95
2022-10-11T05:39:50.497Z,8.80
2022-10-11T05:42:17.548Z,9.25
2022-10-11T05:44:44.619Z,9.15
2022-10-11T05:47:11.838Z,6.55
2022-10-11T05:49:38.890Z,7.30
2022-10-11T05:52:09.022Z,10.83
2022-10-11T05:54:36.092Z,7.93
2022-10-11T05:57:03.180Z,9.20
2022-10-11T05:59:30.483Z,11.68
2022-10-11T06:01:57.568Z,6.43
2022-10-11T06:04:24.806Z,10.60
2022-10-11T06:06:51.840Z,6.75
2022-10-11T06:09:18.958Z,12.90
2022-10-11T06:11:46.168Z,7.97
2022-10-11T06:14:13.462Z,8.18
2022-10-11T06:16:40.492Z,10.97
2022-10-11T06:19:07.662Z,10.60
2022-10-11T06:21:34.767Z,9.52
2022-10-11T06:24:02.569Z,9.73
2022-10-11T06:26:30.017Z,7.78
2022-10-11T06:28:57.369Z,8.00
2022-10-11T06:31:24.936Z,7.30
2022-10-11T06:33:52.037Z,8.93
2022-10-11T06:36:19.129Z,9.35
2022-10-11T06:38:46.210Z,12.68
2022-10-11T06:41:17.507Z,8.53
2022-10-11T06:43:45.703Z,9.55
2022-10-11T06:46:13.061Z,10.88
2022-10-11T06:48:45.048Z,12.95
2022-10-11T06:51:12.978Z,12.23
2022-10-11T06:53:40.405Z,14.40
2022-10-11T06:56:12.387Z,9.52
2022-10-11T06:58:40.028Z,12.32
2022-10-11T07:01:09.926Z,11.27
2022-10-11T07:03:37.217Z,7.75
2022-10-11T07:06:09.303Z,11.23
2022-10-11T07:08:37.441Z,8.50
2022-10-11T07:11:09.801Z,9.45
2022-10-11T07:13:37.929Z,11.15
2022-10-11T07:16:08.123Z,10.77
2022-10-11T07:18:35.640Z,9.60
2022-10-11T07:21:04.447Z,9.20
2022-10-11T07:23:31.595Z,10.40
2022-10-11T07:25:58.905Z,12.60
2022-10-11T07:28:26.506Z,9.88
2022-10-11T07:30:53.680Z,9.83
2022-10-11T07:33:20.787Z,15.15
2022-10-11T07:35:48.849Z,15.38
2022-10-11T07:38:16.632Z,17.80
2022-10-11T07:40:46.051Z,11.45
2022-10-11T07:43:13.682Z,12.50
2022-10-11T07:45:42.044Z,9.57
2022-10-11T07:48:09.285Z,13.63
2022-10-11T07:50:36.788Z,8.63
2022-10-11T07:53:04.320Z,11.82
2022-10-11T07:55:35.547Z,12.30
2022-10-11T07:58:02.579Z,15.35
2022-10-11T08:00:29.681Z,10.45
2022-10-11T08:02:56.984Z,10.35
2022-10-11T08:05:24.119Z,9.77
2022-10-11T08:07:51.177Z,9.20
2022-10-11T08:10:18.566Z,10.98
2022-10-11T08:12:47.908Z,11.13
2022-10-11T08:15:15.047Z,10.13
2022-10-11T08:17:42.254Z,15.30
2022-10-11T08:20:09.893Z,9.87
2022-10-11T08:22:37.009Z,15.45
2022-10-11T08:25:04.438Z,10.73
2022-10-11T08:27:31.758Z,7.50
2022-10-11T08:29:58.885Z,8.25
2022-10-11T08:32:25.947Z,11.37
2022-10-11T08:34:53.065Z,19.67
2022-10-11T08:37:20.127Z,7.78
2022-10-11T08:39:47.327Z,8.82
2022-10-11T08:42:20.289Z,9.07
2022-10-11T08:45:09.984Z,10.30
2022-10-11T08:47:41.154Z,12.57
2022-10-11T08:50:20.382Z,16.48
2022-10-11T08:52:56.673Z,6.90
2022-10-11T08:55:29.075Z,12.02
2022-10-11T08:57:56.581Z,15.27
2022-10-11T09:00:23.999Z,7.10
2022-10-11T09:03:21.989Z,10.73
2022-10-11T09:06:24.111Z,8.95
2022-10-11T09:09:23.583Z,8.25
2022-10-11T09:12:10.836Z,9.20
2022-10-11T09:15:02.216Z,10.60
2022-10-11T09:17:47.122Z,7.25
2022-10-11T09:20:23.050Z,5.40
2022-10-11T09:23:27.911Z,9.63
2022-10-11T09:25:59.956Z,6.43
2022-10-11T09:28:48.676Z,7.70
2022-10-11T09:31:16.159Z,8.32
2022-10-11T09:33:48.044Z,7.57
2022-10-11T09:36:45.533Z,5.82
2022-10-11T09:39:29.734Z,12.00
2022-10-11T09:42:07.721Z,7.05
2022-10-11T09:44:46.690Z,5.60
2022-10-11T09:47:22.909Z,11.90
2022-10-11T09:49:57.914Z,11.13
2022-10-11T09:52:25.549Z,8.50
2022-10-11T09:54:58.063Z,12.52
2022-10-11T09:57:26.919Z,8.95
2022-10-11T10:00:24.761Z,9.50
2022-10-11T10:02:58.237Z,7.15
2022-10-11T10:05:33.779Z,6.03
2022-10-11T10:08:10.125Z,10.40
2022-10-11T10:10:40.400Z,9.27
2022-10-11T10:13:22.254Z,7.40
2022-10-11T10:15:55.623Z,5.25
2022-10-11T10:18:25.097Z,5.27
2022-10-11T10:20:54.835Z,5.93
2022-10-11T10:23:25.723Z,6.45
2022-10-11T10:26:13.286Z,5.97
2022-10-11T10:29:21.098Z,8.63
2022-10-11T10:32:13.292Z,6.87
2022-10-11T10:34:36.921Z,10.60
2022-10-11T10:37:14.765Z,10.00
2022-10-11T10:39:46.370Z,3.55
2022-10-11T10:42:18.509Z,4.85
2022-10-11T10:44:54.120Z,7.70
2022-10-11T10:47:39.575Z,7.15
2022-10-11T10:50:24.175Z,8.20
2022-10-11T10:53:13.068Z,10.57
2022-10-11T10:55:45.289Z,6.55
2022-10-11T10:58:23.867Z,8.20
2022-10-11T11:00:55.697Z,5.78
2022-10-11T11:03:52.599Z,9.57
2022-10-11T11:06:35.697Z,5.32
2022-10-11T11:09:06.805Z,9.15
2022-10-11T11:11:58.779Z,6.73
2022-10-11T11:14:31.786Z,8.23
2022-10-11T11:17:25.922Z,7.05
2022-10-11T11:20:15.632Z,8.30
2022-10-11T11:23:04.504Z,6.63
2022-10-11T11:25:45.099Z,10.00
2022-10-11T11:28:41.507Z,13.32
2022-10-11T11:31:17.686Z,4.72
2022-10-11T11:34:02.990Z,9.55
2022-10-11T11:36:42.610Z,6.03
2022-10-11T11:39:24.933Z,10.67
2022-10-11T11:42:04.890Z,7.93
2022-10-11T11:44:36.227Z,5.40
2022-10-11T11:47:07.390Z,6.25
2022-10-11T11:49:38.444Z,5.40
2022-10-11T11:52:08.356Z,5.17
2022-10-11T11:54:41.424Z,8.43
2022-10-11T11:57:39.647Z,6.53
2022-10-11T12:00:08.978Z,7.90
2022-10-11T12:02:57.146Z,8.43
2022-10-11T12:05:31.033Z,4.10
2022-10-11T12:08:00.900Z,10.02
2022-10-11T12:10:36.084Z,11.77
2022-10-11T12:13:12.738Z,8.65
2022-10-11T12:15:40.047Z,8.00
2022-10-11T12:18:17.156Z,5.63
2022-10-11T12:20:44.456Z,3.95
2022-10-11T12:23:29.566Z,9.18
2022-10-11T12:26:27.356Z,4.85
2022-10-11T12:29:04.867Z,7.28
2022-10-11T12:31:36.283Z,7.17
2022-10-11T12:34:09.322Z,2.33
2022-10-11T12:36:47.138Z,3.85
2022-10-11T12:39:20.256Z,7.53
2022-10-11T12:41:47.639Z,5.15
2022-10-11T12:44:28.893Z,5.13
2022-10-11T12:46:57.724Z,6.53
2022-10-11T12:49:35.444Z,7.00
2022-10-11T12:52:21.838Z,6.22
2022-10-11T12:55:29.968Z,4.72
2022-10-11T12:58:12.564Z,7.20
2022-10-11T13:00:39.516Z,6.07
2022-10-11T13:03:32.216Z,8.52
2022-10-11T13:06:04.741Z,4.38
2022-10-11T13:08:37.844Z,5.85
2022-10-11T13:11:07.993Z,6.77
2022-10-11T13:13:44.602Z,7.78
2022-10-11T13:16:17.507Z,5.95
2022-10-11T13:18:47.873Z,6.95
2022-10-11T13:21:30.148Z,6.93
2022-10-11T13:24:02.175Z,5.63
2022-10-11T13:26:30.985Z,8.43
2022-10-11T13:29:00.041Z,8.15
2022-10-11T13:31:27.346Z,5.65
2022-10-11T13:33:56.585Z,7.00
2022-10-11T13:36:26.684Z,4.83
2022-10-11T13:38:57.084Z,5.53
2022-10-11T13:41:27.062Z,6.40
2022-10-11T13:43:56.120Z,6.00
2022-10-11T13:46:25.373Z,7.30
2022-10-11T13:49:06.824Z,3.77
2022-10-11T13:51:37.202Z,5.03
2022-10-11T13:54:07.148Z,5.85
2022-10-11T13:56:42.659Z,5.60
2022-10-11T13:59:23.324Z,6.75
2022-10-11T14:02:04.395Z,6.87
2022-10-11T14:04:39.555Z,5.85
2022-10-11T14:07:07.062Z,6.68
2022-10-11T14:09:37.426Z,5.97
2022-10-11T14:12:40.741Z,7.03
2022-10-11T14:15:32.901Z,6.07
2022-10-11T14:18:01.237Z,4.78
2022-10-11T14:20:39.216Z,6.57
2022-10-11T14:23:07.009Z,3.95
2022-10-11T14:25:34.385Z,5.63
2022-10-11T14:28:01.548Z,8.20
2022-10-11T14:30:31.758Z,6.95
2022-10-11T14:33:01.193Z,3.78
2022-10-11T14:35:30.802Z,8.18
2022-10-11T14:37:58.380Z,7.22
2022-10-11T14:40:28.526Z,11.10
2022-10-11T14:42:55.897Z,9.93
2022-10-11T14:45:23.604Z,12.43
2022-10-11T14:47:51.804Z,6.00
2022-10-11T14:50:30.487Z,4.47
2022-10-11T14:52:58.124Z,4.27
2022-10-11T14:55:25.460Z,8.05
2022-10-11T14:57:56.472Z,6.25
2022-10-11T15:00:27.006Z,6.82
2022-10-11T15:02:54.675Z,6.80
2022-10-11T15:05:23.349Z,5.23
2022-10-11T15:07:50.911Z,6.68
2022-10-11T15:10:28.715Z,11.15
2022-10-11T15:12:56.477Z,5.95
2022-10-11T15:15:26.843Z,5.85
2022-10-11T15:17:56.334Z,6.73
2022-10-11T15:20:33.412Z,8.18
2022-10-11T15:23:01.207Z,5.55
2022-10-11T15:25:29.317Z,6.07
2022-10-11T15:27:57.766Z,5.68
2022-10-11T15:30:30.986Z,7.50
2022-10-11T15:32:58.410Z,8.88
2022-10-11T15:35:27.097Z,6.05
2022-10-11T15:37:57.255Z,7.20
2022-10-11T15:40:33.564Z,4.70
2022-10-11T15:43:00.740Z,5.23
2022-10-11T15:45:28.802Z,4.30
2022-10-11T15:47:56.074Z,3.47
2022-10-11T15:50:35.186Z,6.57
2022-10-11T15:53:11.408Z,7.03
2022-10-11T15:55:41.279Z,6.00
2022-10-11T15:58:35.976Z,4.78
2022-10-11T16:01:17.005Z,10.07
2022-10-11T16:03:45.107Z,5.13
2022-10-11T16:06:13.326Z,11.52
2022-10-11T16:08:40.696Z,8.67
2022-10-11T16:11:09.285Z,4.82
2022-10-11T16:13:36.389Z,7.15
2022-10-11T16:16:08.566Z,4.55
2022-10-11T16:18:36.374Z,6.22
2022-10-11T16:21:09.374Z,4.43
2022-10-11T16:23:37.700Z,6.38
2022-10-11T16:26:08.309Z,5.68
2022-10-11T16:28:36.130Z,3.35
2022-10-11T16:31:11.253Z,7.13
2022-10-11T16:33:45.562Z,4.97
2022-10-11T16:36:35.618Z,6.05
2022-10-11T16:39:12.912Z,5.88
2022-10-11T16:41:40.529Z,4.93
2022-10-11T16:44:07.836Z,5.68
2022-10-11T16:46:34.937Z,8.10
2022-10-11T16:49:02.108Z,7.13
2022-10-11T16:51:29.789Z,6.47
2022-10-11T16:53:57.147Z,6.53
2022-10-11T16:56:25.145Z,7.95
2022-10-11T16:58:53.405Z,6.67
2022-10-11T17:01:21.329Z,6.38
2022-10-11T17:03:50.078Z,12.30
2022-10-11T17:06:17.814Z,7.88
2022-10-11T17:08:45.313Z,4.90
2022-10-11T17:11:12.610Z,12.50
2022-10-11T17:13:39.931Z,5.15
2022-10-11T17:16:07.868Z,7.28
2022-10-11T17:18:35.464Z,7.10
2022-10-11T17:21:07.595Z,7.32
2022-10-11T17:23:35.715Z,9.20
2022-10-11T17:26:11.221Z,8.48
2022-10-11T17:28:39.054Z,11.30
2022-10-11T17:31:07.650Z,11.27
2022-10-11T17:33:35.475Z,10.52
2022-10-11T17:36:04.699Z,11.60
2022-10-11T17:38:32.054Z,10.68
2022-10-11T17:41:04.834Z,9.00
2022-10-11T17:43:32.109Z,10.55
2022-10-11T17:46:01.078Z,11.68
2022-10-11T17:48:28.855Z,12.23
2022-10-11T17:50:56.075Z,13.82
2022-10-11T17:53:23.454Z,12.88
2022-10-11T17:55:50.705Z,11.40
2022-10-11T17:58:18.385Z,11.98
2022-10-11T18:00:45.650Z,11.33
2022-10-11T18:03:12.796Z,8.85
2022-10-11T18:05:40.914Z,9.60
2022-10-11T18:08:08.674Z,13.63
2022-10-11T18:10:36.968Z,11.07
2022-10-11T18:13:06.644Z,12.97
2022-10-11T18:15:34.245Z,11.77
2022-10-11T18:18:01.946Z,10.85
2022-10-11T18:20:29.093Z,11.93
2022-10-11T18:22:56.215Z,11.88
2022-10-11T18:25:23.386Z,10.83
2022-10-11T18:27:51.502Z,15.60
2022-10-11T18:30:19.005Z,16.95
2022-10-11T18:32:46.140Z,14.07
2022-10-11T18:35:13.222Z,11.88
2022-10-11T18:37:40.290Z,10.90
2022-10-11T18:40:07.595Z,13.70
2022-10-11T18:42:34.988Z,13.32
2022-10-11T18:45:02.173Z,13.63
2022-10-11T18:47:29.219Z,14.75
2022-10-11T18:49:56.430Z,16.47
2022-10-11T18:52:23.469Z,15.07
2022-10-11T18:54:50.631Z,10.50
2022-10-11T18:57:17.710Z,11.18
2022-10-11T18:59:45.946Z,11.23
2022-10-11T19:02:13.063Z,9.90
2022-10-11T19:04:40.219Z,12.38
2022-10-11T19:07:07.349Z,10.48
2022-10-11T19:09:34.519Z,10.15
2022-10-11T19:12:01.646Z,14.82
2022-10-11T19:14:30.204Z,11.77
2022-10-11T19:16:57.550Z,13.80
2022-10-11T19:19:27.268Z,14.23
2022-10-11T19:21:54.802Z,12.10
2022-10-11T19:24:26.387Z,11.70
2022-10-11T19:26:57.239Z,11.90
2022-10-11T19:29:28.791Z,13.68
2022-10-11T19:31:58.250Z,10.27
2022-10-11T19:34:27.483Z,11.55
2022-10-11T19:36:56.375Z,13.68
2022-10-11T19:39:24.515Z,12.30
2022-10-11T19:41:51.773Z,11.77
2022-10-11T19:44:19.089Z,10.52
2022-10-11T19:46:53.472Z,16.05
2022-10-11T19:49:24.882Z,12.10
2022-10-11T19:51:53.327Z,14.73
2022-10-11T19:54:20.394Z,12.38
2022-10-11T19:56:47.811Z,12.55
2022-10-11T19:59:15.333Z,11.05
2022-10-11T20:01:42.839Z,10.88
2022-10-11T20:04:22.959Z,16.83
2022-10-11T20:06:58.775Z,18.08
2022-10-11T20:09:30.317Z,12.90
2022-10-11T20:11:58.219Z,15.63
2022-10-11T20:14:25.497Z,15.55
2022-10-11T20:16:52.646Z,11.63
2022-10-11T20:19:20.045Z,13.73
2022-10-11T20:21:47.730Z,12.93
2022-10-11T20:24:14.807Z,13.05
2022-10-11T20:26:41.912Z,12.23
2022-10-11T20:29:08.990Z,14.43
2022-10-11T20:31:41.749Z,16.30
2022-10-11T20:34:09.537Z,16.45
2022-10-11T20:36:37.263Z,16.30
2022-10-11T20:39:05.894Z,11.75
2022-10-11T20:41:37.017Z,10.50
2022-10-11T20:44:05.097Z,13.27
2022-10-11T20:46:33.973Z,10.23
2022-10-11T20:49:13.412Z,11.10
2022-10-11T20:51:41.850Z,11.52
2022-10-11T20:54:10.194Z,13.23
2022-10-11T20:56:37.772Z,11.77
2022-10-11T20:59:06.074Z,13.25
2022-10-11T21:01:35.593Z,24.50
2022-10-11T21:04:03.600Z,17.92
2022-10-11T21:06:31.854Z,14.60
2022-10-11T21:08:59.471Z,14.55
2022-10-11T21:11:31.241Z,12.70
2022-10-11T21:14:00.442Z,16.02
2022-10-11T21:16:28.368Z,13.20
2022-10-11T21:18:56.583Z,11.47
2022-10-11T21:21:24.159Z,14.27
2022-10-11T21:23:55.357Z,11.32
2022-10-11T21:26:22.620Z,11.07
2022-10-11T21:28:49.841Z,11.85
2022-10-11T21:31:18.843Z,11.53
2022-10-11T21:33:46.048Z,11.88
2022-10-11T21:36:21.018Z,14.40
2022-10-11T21:38:48.666Z,11.10
2022-10-11T21:41:19.095Z,14.07
2022-10-11T21:43:47.133Z,11.43
2022-10-11T21:46:16.533Z,9.98
2022-10-11T21:48:43.834Z,11.13
2022-10-11T21:51:36.950Z,12.75
2022-10-11T21:54:05.209Z,14.25
2022-10-11T21:56:32.377Z,9.23
2022-10-11T21:58:59.476Z,11.65
2022-10-11T22:01:26.763Z,12.32
2022-10-11T22:03:54.460Z,14.80
2022-10-11T22:06:21.837Z,11.30
2022-10-11T22:08:50.139Z,10.47
2022-10-11T22:11:17.603Z,10.43
2022-10-11T22:13:46.960Z,9.52
2022-10-11T22:16:14.242Z,13.18
2022-10-11T22:18:42.413Z,14.40
2022-10-11T22:21:17.648Z,13.57
2022-10-11T22:23:47.031Z,12.82
2022-10-11T22:26:16.917Z,14.68
2022-10-11T22:28:46.433Z,12.73
2022-10-11T22:31:14.206Z,12.63
2022-10-11T22:33:42.079Z,14.50
2022-10-11T22:36:12.103Z,15.90
2022-10-11T22:38:40.971Z,10.95
2022-10-11T22:41:08.679Z,14.70
2022-10-11T22:43:35.817Z,13.60
2022-10-11T22:46:02.954Z,16.57
2022-10-11T22:48:30.061Z,13.07
2022-10-11T22:50:57.166Z,14.13
2022-10-11T22:53:24.202Z,13.98
2022-10-11T22:55:51.319Z,13.35
2022-10-11T22:58:18.358Z,15.03
2022-10-11T23:00:45.726Z,12.43
2022-10-11T23:03:13.602Z,9.90
2022-10-11T23:05:40.870Z,12.18
2022-10-11T23:08:09.613Z,13.75
2022-10-11T23:10:40.321Z,11.70
2022-10-11T23:13:07.868Z,14.48
2022-10-11T23:15:35.228Z,16.58
2022-10-11T23:18:02.254Z,15.60
2022-10-11T23:20:29.311Z,11.30
2022-10-11T23:22:57.540Z,14.50
2022-10-11T23:25:24.619Z,8.40
2022-10-11T23:27:51.649Z,11.15
2022-10-11T23:30:18.855Z,10.25
2022-10-11T23:32:45.938Z,10.88
2022-10-11T23:35:13.036Z,9.47
2022-10-11T23:37:40.201Z,12.10
2022-10-11T23:40:08.368Z,11.18
2022-10-11T23:42:35.453Z,13.02
2022-10-11T23:45:02.520Z,11.55
2022-10-11T23:47:29.756Z,11.97
2022-10-11T23:49:57.139Z,12.18
2022-10-11T23:52:24.270Z,12.73
2022-10-11T23:54:51.592Z,12.38
2022-10-11T23:57:18.683Z,16.10
2022-10-11T23:59:45.745Z,12.10
